sensor_id;sensor_type;location;lat;lon;timestamp;P1;durP1;ratioP1;P2;durP2;ratioP2
27839;SDS011;15207;42.182;24.308;2022-07-29T00:00:42;7.70;;;4.63;;
27839;SDS011;15207;42.182;24.308;2022-07-29T00:03:11;10.68;;;4.72;;
27839;SDS011;15207;42.182;24.308;2022-07-29T00:05:40;9.98;;;4.85;;
27839;SDS011;15207;42.182;24.308;2022-07-29T00:08:07;12.13;;;5.15;;
27839;SDS011;15207;42.182;24.308;2022-07-29T00:10:33;8.00;;;4.90;;
27839;SDS011;15207;42.182;24.308;2022-07-29T00:12:59;9.80;;;4.43;;
27839;SDS011;15207;42.182;24.308;2022-07-29T00:15:25;5.65;;;4.20;;
27839;SDS011;15207;42.182;24.308;2022-07-29T00:17:51;6.20;;;4.60;;
27839;SDS011;15207;42.182;24.308;2022-07-29T00:20:16;6.20;;;4.20;;
27839;SDS011;15207;42.182;24.308;2022-07-29T00:22:42;7.05;;;4.35;;
27839;SDS011;15207;42.182;24.308;2022-07-29T00:25:08;7.38;;;4.30;;
27839;SDS011;15207;42.182;24.308;2022-07-29T00:27:34;5.50;;;3.90;;
27839;SDS011;15207;42.182;24.308;2022-07-29T00:30:01;12.20;;;4.10;;
27839;SDS011;15207;42.182;24.308;2022-07-29T00:32:27;4.75;;;4.00;;
27839;SDS011;15207;42.182;24.308;2022-07-29T00:34:53;4.97;;;3.77;;
27839;SDS011;15207;42.182;24.308;2022-07-29T00:37:37;6.13;;;4.30;;
27839;SDS011;15207;42.182;24.308;2022-07-29T00:40:03;10.60;;;4.00;;
27839;SDS011;15207;42.182;24.308;2022-07-29T00:42:29;8.50;;;4.20;;
27839;SDS011;15207;42.182;24.308;2022-07-29T00:44:54;8.63;;;4.32;;
27839;SDS011;15207;42.182;24.308;2022-07-29T00:47:20;5.50;;;4.20;;
27839;SDS011;15207;42.182;24.308;2022-07-29T00:49:45;8.05;;;3.90;;
27839;SDS011;15207;42.182;24.308;2022-07-29T00:52:11;5.60;;;4.40;;
27839;SDS011;15207;42.182;24.308;2022-07-29T00:54:38;10.52;;;4.30;;
27839;SDS011;15207;42.182;24.308;2022-07-29T00:57:05;6.97;;;3.90;;
27839;SDS011;15207;42.182;24.308;2022-07-29T01:01:57;6.90;;;4.30;;
27839;SDS011;15207;42.182;24.308;2022-07-29T01:06:48;8.98;;;4.50;;
27839;SDS011;15207;42.182;24.308;2022-07-29T01:11:40;5.50;;;4.10;;
27839;SDS011;15207;42.182;24.308;2022-07-29T01:14:06;6.32;;;4.10;;
27839;SDS011;15207;42.182;24.308;2022-07-29T01:16:54;8.90;;;4.35;;
27839;SDS011;15207;42.182;24.308;2022-07-29T01:19:33;9.40;;;4.20;;
27839;SDS011;15207;42.182;24.308;2022-07-29T01:30:25;5.82;;;4.30;;
27839;SDS011;15207;42.182;24.308;2022-07-29T01:33:00;8.65;;;4.30;;
27839;SDS011;15207;42.182;24.308;2022-07-29T01:35:38;6.60;;;4.10;;
27839;SDS011;15207;42.182;24.308;2022-07-29T01:38:09;10.30;;;4.60;;
27839;SDS011;15207;42.182;24.308;2022-07-29T01:43:17;11.55;;;4.30;;
27839;SDS011;15207;42.182;24.308;2022-07-29T01:45:47;12.30;;;5.80;;
27839;SDS011;15207;42.182;24.308;2022-07-29T01:50:50;7.10;;;5.35;;
27839;SDS011;15207;42.182;24.308;2022-07-29T01:53:23;7.20;;;4.77;;
27839;SDS011;15207;42.182;24.308;2022-07-29T01:55:54;9.40;;;5.07;;
27839;SDS011;15207;42.182;24.308;2022-07-29T01:58:22;10.75;;;5.38;;
27839;SDS011;15207;42.182;24.308;2022-07-29T02:00:49;6.70;;;4.90;;
27839;SDS011;15207;42.182;24.308;2022-07-29T02:03:17;7.70;;;5.00;;
27839;SDS011;15207;42.182;24.308;2022-07-29T02:05:44;8.82;;;5.68;;
27839;SDS011;15207;42.182;24.308;2022-07-29T02:10:38;10.00;;;5.20;;
27839;SDS011;15207;42.182;24.308;2022-07-29T02:15:34;12.73;;;5.28;;
27839;SDS011;15207;42.182;24.308;2022-07-29T02:18:05;10.13;;;5.28;;
27839;SDS011;15207;42.182;24.308;2022-07-29T02:20:33;9.95;;;5.10;;
27839;SDS011;15207;42.182;24.308;2022-07-29T02:23:00;7.97;;;5.18;;
27839;SDS011;15207;42.182;24.308;2022-07-29T02:25:27;8.55;;;4.95;;
27839;SDS011;15207;42.182;24.308;2022-07-29T02:27:54;7.90;;;5.15;;
27839;SDS011;15207;42.182;24.308;2022-07-29T02:30:22;11.00;;;5.80;;
27839;SDS011;15207;42.182;24.308;2022-07-29T02:32:49;13.80;;;5.10;;
27839;SDS011;15207;42.182;24.308;2022-07-29T02:35:16;12.77;;;7.55;;
27839;SDS011;15207;42.182;24.308;2022-07-29T02:37:44;10.40;;;6.70;;
27839;SDS011;15207;42.182;24.308;2022-07-29T02:40:31;10.30;;;6.60;;
27839;SDS011;15207;42.182;24.308;2022-07-29T02:43:00;8.20;;;6.00;;
27839;SDS011;15207;42.182;24.308;2022-07-29T02:45:27;10.15;;;7.10;;
27839;SDS011;15207;42.182;24.308;2022-07-29T02:47:54;15.80;;;6.70;;
27839;SDS011;15207;42.182;24.308;2022-07-29T02:50:32;15.53;;;6.40;;
27839;SDS011;15207;42.182;24.308;2022-07-29T02:53:11;12.38;;;6.85;;
27839;SDS011;15207;42.182;24.308;2022-07-29T02:55:45;9.25;;;7.28;;
27839;SDS011;15207;42.182;24.308;2022-07-29T03:01:03;11.70;;;8.10;;
27839;SDS011;15207;42.182;24.308;2022-07-29T03:03:35;12.53;;;8.27;;
27839;SDS011;15207;42.182;24.308;2022-07-29T03:06:03;14.90;;;9.10;;
27839;SDS011;15207;42.182;24.308;2022-07-29T03:08:30;11.70;;;9.30;;
27839;SDS011;15207;42.182;24.308;2022-07-29T03:10:57;14.57;;;9.70;;
27839;SDS011;15207;42.182;24.308;2022-07-29T03:13:25;13.43;;;10.15;;
27839;SDS011;15207;42.182;24.308;2022-07-29T03:15:53;15.80;;;9.20;;
27839;SDS011;15207;42.182;24.308;2022-07-29T03:18:20;16.20;;;10.20;;
27839;SDS011;15207;42.182;24.308;2022-07-29T03:20:46;14.98;;;8.98;;
27839;SDS011;15207;42.182;24.308;2022-07-29T03:23:12;14.70;;;10.40;;
27839;SDS011;15207;42.182;24.308;2022-07-29T03:25:44;12.55;;;10.25;;
27839;SDS011;15207;42.182;24.308;2022-07-29T03:28:09;14.75;;;9.80;;
27839;SDS011;15207;42.182;24.308;2022-07-29T03:30:35;17.80;;;10.30;;
27839;SDS011;15207;42.182;24.308;2022-07-29T03:33:01;12.20;;;9.40;;
27839;SDS011;15207;42.182;24.308;2022-07-29T03:35:26;12.37;;;9.60;;
27839;SDS011;15207;42.182;24.308;2022-07-29T03:40:22;14.00;;;9.85;;
27839;SDS011;15207;42.182;24.308;2022-07-29T03:42:53;15.70;;;9.60;;
27839;SDS011;15207;42.182;24.308;2022-07-29T03:45:19;16.65;;;9.30;;
27839;SDS011;15207;42.182;24.308;2022-07-29T03:47:48;15.00;;;9.40;;
27839;SDS011;15207;42.182;24.308;2022-07-29T03:50:20;12.85;;;8.60;;
27839;SDS011;15207;42.182;24.308;2022-07-29T03:52:47;14.90;;;9.35;;
27839;SDS011;15207;42.182;24.308;2022-07-29T03:55:13;11.90;;;8.50;;
27839;SDS011;15207;42.182;24.308;2022-07-29T03:57:39;11.70;;;8.40;;
27839;SDS011;15207;42.182;24.308;2022-07-29T04:00:06;14.60;;;8.57;;
27839;SDS011;15207;42.182;24.308;2022-07-29T04:02:33;15.20;;;8.80;;
27839;SDS011;15207;42.182;24.308;2022-07-29T04:07:25;12.23;;;9.37;;
27839;SDS011;15207;42.182;24.308;2022-07-29T04:09:50;12.32;;;9.10;;
27839;SDS011;15207;42.182;24.308;2022-07-29T04:12:16;14.52;;;8.85;;
27839;SDS011;15207;42.182;24.308;2022-07-29T04:14:41;13.13;;;8.98;;
27839;SDS011;15207;42.182;24.308;2022-07-29T04:17:07;13.18;;;8.48;;
27839;SDS011;15207;42.182;24.308;2022-07-29T04:19:32;16.00;;;7.90;;
27839;SDS011;15207;42.182;24.308;2022-07-29T04:21:58;11.95;;;8.77;;
27839;SDS011;15207;42.182;24.308;2022-07-29T04:24:25;11.70;;;7.78;;
27839;SDS011;15207;42.182;24.308;2022-07-29T04:26:51;13.50;;;7.18;;
27839;SDS011;15207;42.182;24.308;2022-07-29T04:29:17;11.00;;;6.60;;
27839;SDS011;15207;42.182;24.308;2022-07-29T04:31:43;11.80;;;6.93;;
27839;SDS011;15207;42.182;24.308;2022-07-29T04:36:34;10.25;;;6.45;;
27839;SDS011;15207;42.182;24.308;2022-07-29T04:39:00;11.40;;;7.50;;
27839;SDS011;15207;42.182;24.308;2022-07-29T04:41:27;7.50;;;5.70;;
27839;SDS011;15207;42.182;24.308;2022-07-29T04:43:52;14.65;;;5.45;;
27839;SDS011;15207;42.182;24.308;2022-07-29T04:46:18;7.00;;;5.40;;
27839;SDS011;15207;42.182;24.308;2022-07-29T04:48:47;9.32;;;6.22;;
27839;SDS011;15207;42.182;24.308;2022-07-29T04:51:13;7.50;;;5.80;;
27839;SDS011;15207;42.182;24.308;2022-07-29T04:53:41;10.18;;;5.80;;
27839;SDS011;15207;42.182;24.308;2022-07-29T04:56:07;8.80;;;5.70;;
27839;SDS011;15207;42.182;24.308;2022-07-29T04:58:35;8.00;;;6.30;;
27839;SDS011;15207;42.182;24.308;2022-07-29T05:01:01;8.30;;;5.20;;
27839;SDS011;15207;42.182;24.308;2022-07-29T05:03:28;9.60;;;5.90;;
27839;SDS011;15207;42.182;24.308;2022-07-29T05:05:54;7.70;;;4.90;;
27839;SDS011;15207;42.182;24.308;2022-07-29T05:08:19;9.15;;;5.10;;
27839;SDS011;15207;42.182;24.308;2022-07-29T05:10:45;5.90;;;4.60;;
27839;SDS011;15207;42.182;24.308;2022-07-29T05:13:11;6.50;;;4.70;;
27839;SDS011;15207;42.182;24.308;2022-07-29T05:15:36;8.55;;;4.55;;
27839;SDS011;15207;42.182;24.308;2022-07-29T05:18:02;6.15;;;4.70;;
27839;SDS011;15207;42.182;24.308;2022-07-29T05:20:29;7.57;;;5.18;;
27839;SDS011;15207;42.182;24.308;2022-07-29T05:22:55;7.60;;;5.00;;
27839;SDS011;15207;42.182;24.308;2022-07-29T05:25:22;5.35;;;4.00;;
27839;SDS011;15207;42.182;24.308;2022-07-29T05:27:49;8.47;;;4.00;;
27839;SDS011;15207;42.182;24.308;2022-07-29T05:30:15;7.80;;;4.10;;
27839;SDS011;15207;42.182;24.308;2022-07-29T05:32:40;5.50;;;3.90;;
27839;SDS011;15207;42.182;24.308;2022-07-29T05:35:06;7.60;;;4.70;;
27839;SDS011;15207;42.182;24.308;2022-07-29T05:37:33;7.45;;;4.35;;
27839;SDS011;15207;42.182;24.308;2022-07-29T05:39:59;7.63;;;3.90;;
27839;SDS011;15207;42.182;24.308;2022-07-29T05:42:25;7.95;;;4.40;;
27839;SDS011;15207;42.182;24.308;2022-07-29T05:44:51;6.20;;;3.93;;
27839;SDS011;15207;42.182;24.308;2022-07-29T05:49:42;5.05;;;4.15;;
27839;SDS011;15207;42.182;24.308;2022-07-29T05:52:07;9.50;;;4.30;;
27839;SDS011;15207;42.182;24.308;2022-07-29T05:56:59;6.90;;;3.90;;
27839;SDS011;15207;42.182;24.308;2022-07-29T05:59:25;6.10;;;3.70;;
27839;SDS011;15207;42.182;24.308;2022-07-29T06:01:50;6.45;;;3.80;;
27839;SDS011;15207;42.182;24.308;2022-07-29T06:04:16;7.87;;;3.47;;
27839;SDS011;15207;42.182;24.308;2022-07-29T06:06:41;4.50;;;3.40;;
27839;SDS011;15207;42.182;24.308;2022-07-29T06:09:07;5.40;;;3.70;;
27839;SDS011;15207;42.182;24.308;2022-07-29T06:11:32;5.00;;;3.20;;
27839;SDS011;15207;42.182;24.308;2022-07-29T06:16:23;4.50;;;3.50;;
27839;SDS011;15207;42.182;24.308;2022-07-29T06:18:49;7.17;;;3.27;;
27839;SDS011;15207;42.182;24.308;2022-07-29T06:21:15;9.57;;;3.80;;
27839;SDS011;15207;42.182;24.308;2022-07-29T06:23:40;4.40;;;3.40;;
27839;SDS011;15207;42.182;24.308;2022-07-29T06:26:06;6.40;;;3.80;;
27839;SDS011;15207;42.182;24.308;2022-07-29T06:28:32;9.83;;;3.80;;
27839;SDS011;15207;42.182;24.308;2022-07-29T06:30:58;10.90;;;3.60;;
27839;SDS011;15207;42.182;24.308;2022-07-29T06:33:24;6.77;;;3.40;;
27839;SDS011;15207;42.182;24.308;2022-07-29T06:35:50;8.80;;;3.40;;
27839;SDS011;15207;42.182;24.308;2022-07-29T06:38:15;5.70;;;3.50;;
27839;SDS011;15207;42.182;24.308;2022-07-29T06:40:44;11.65;;;4.15;;
27839;SDS011;15207;42.182;24.308;2022-07-29T06:43:31;11.30;;;3.90;;
27839;SDS011;15207;42.182;24.308;2022-07-29T06:46:02;8.60;;;4.70;;
27839;SDS011;15207;42.182;24.308;2022-07-29T06:48:29;5.70;;;4.50;;
27839;SDS011;15207;42.182;24.308;2022-07-29T06:53:20;11.20;;;5.20;;
27839;SDS011;15207;42.182;24.308;2022-07-29T06:55:46;9.65;;;4.55;;
27839;SDS011;15207;42.182;24.308;2022-07-29T06:58:12;8.90;;;4.53;;
27839;SDS011;15207;42.182;24.308;2022-07-29T07:03:04;8.70;;;5.10;;
27839;SDS011;15207;42.182;24.308;2022-07-29T07:05:30;9.20;;;5.38;;
27839;SDS011;15207;42.182;24.308;2022-07-29T07:07:55;10.50;;;4.70;;
27839;SDS011;15207;42.182;24.308;2022-07-29T07:10:21;11.60;;;5.10;;
27839;SDS011;15207;42.182;24.308;2022-07-29T07:15:12;16.95;;;6.15;;
27839;SDS011;15207;42.182;24.308;2022-07-29T07:20:03;9.50;;;5.50;;
27839;SDS011;15207;42.182;24.308;2022-07-29T07:22:30;12.20;;;5.80;;
27839;SDS011;15207;42.182;24.308;2022-07-29T07:24:56;10.05;;;5.05;;
27839;SDS011;15207;42.182;24.308;2022-07-29T07:27:21;8.60;;;5.70;;
27839;SDS011;15207;42.182;24.308;2022-07-29T07:32:13;11.60;;;5.30;;
27839;SDS011;15207;42.182;24.308;2022-07-29T07:34:41;8.35;;;5.95;;
27839;SDS011;15207;42.182;24.308;2022-07-29T07:37:07;10.50;;;5.60;;
27839;SDS011;15207;42.182;24.308;2022-07-29T07:39:33;8.02;;;5.60;;
27839;SDS011;15207;42.182;24.308;2022-07-29T07:41:59;10.00;;;5.45;;
27839;SDS011;15207;42.182;24.308;2022-07-29T07:44:24;11.75;;;5.70;;
27839;SDS011;15207;42.182;24.308;2022-07-29T07:46:50;12.15;;;5.40;;
27839;SDS011;15207;42.182;24.308;2022-07-29T07:51:42;11.80;;;5.90;;
27839;SDS011;15207;42.182;24.308;2022-07-29T07:54:08;7.50;;;5.55;;
27839;SDS011;15207;42.182;24.308;2022-07-29T07:56:34;6.83;;;5.70;;
27839;SDS011;15207;42.182;24.308;2022-07-29T07:59:00;13.68;;;5.43;;
27839;SDS011;15207;42.182;24.308;2022-07-29T08:01:25;13.00;;;5.60;;
27839;SDS011;15207;42.182;24.308;2022-07-29T08:03:51;8.40;;;5.50;;
27839;SDS011;15207;42.182;24.308;2022-07-29T08:06:16;8.10;;;5.70;;
27839;SDS011;15207;42.182;24.308;2022-07-29T08:08:42;7.70;;;5.60;;
27839;SDS011;15207;42.182;24.308;2022-07-29T08:11:08;7.35;;;5.50;;
27839;SDS011;15207;42.182;24.308;2022-07-29T08:13:33;11.80;;;5.70;;
27839;SDS011;15207;42.182;24.308;2022-07-29T08:15:59;8.80;;;5.10;;
27839;SDS011;15207;42.182;24.308;2022-07-29T08:18:30;6.90;;;4.60;;
27839;SDS011;15207;42.182;24.308;2022-07-29T08:20:56;14.33;;;5.33;;
27839;SDS011;15207;42.182;24.308;2022-07-29T08:23:23;6.25;;;5.05;;
27839;SDS011;15207;42.182;24.308;2022-07-29T08:25:49;6.75;;;4.90;;
27839;SDS011;15207;42.182;24.308;2022-07-29T08:28:15;12.10;;;5.33;;
27839;SDS011;15207;42.182;24.308;2022-07-29T08:30:40;12.83;;;5.23;;
27839;SDS011;15207;42.182;24.308;2022-07-29T08:33:06;8.30;;;5.00;;
27839;SDS011;15207;42.182;24.308;2022-07-29T08:35:31;6.60;;;4.70;;
27839;SDS011;15207;42.182;24.308;2022-07-29T08:37:57;8.80;;;4.70;;
27839;SDS011;15207;42.182;24.308;2022-07-29T08:40:23;8.50;;;4.30;;
27839;SDS011;15207;42.182;24.308;2022-07-29T08:42:49;5.65;;;4.75;;
27839;SDS011;15207;42.182;24.308;2022-07-29T08:45:16;4.95;;;4.35;;
27839;SDS011;15207;42.182;24.308;2022-07-29T08:47:43;7.70;;;5.17;;
27839;SDS011;15207;42.182;24.308;2022-07-29T08:50:10;6.70;;;4.90;;
27839;SDS011;15207;42.182;24.308;2022-07-29T08:52:37;8.40;;;5.20;;
27839;SDS011;15207;42.182;24.308;2022-07-29T08:55:07;14.20;;;5.00;;
27839;SDS011;15207;42.182;24.308;2022-07-29T08:57:34;7.30;;;5.50;;
27839;SDS011;15207;42.182;24.308;2022-07-29T09:00:02;9.30;;;4.70;;
27839;SDS011;15207;42.182;24.308;2022-07-29T09:05:00;8.90;;;5.30;;
27839;SDS011;15207;42.182;24.308;2022-07-29T09:07:27;8.70;;;4.80;;
27839;SDS011;15207;42.182;24.308;2022-07-29T09:09:53;11.00;;;5.50;;
27839;SDS011;15207;42.182;24.308;2022-07-29T09:12:19;5.90;;;4.73;;
27839;SDS011;15207;42.182;24.308;2022-07-29T09:14:47;7.50;;;4.80;;
27839;SDS011;15207;42.182;24.308;2022-07-29T09:17:13;5.55;;;4.90;;
27839;SDS011;15207;42.182;24.308;2022-07-29T09:19:41;5.55;;;4.70;;
27839;SDS011;15207;42.182;24.308;2022-07-29T09:22:07;5.82;;;4.65;;
27839;SDS011;15207;42.182;24.308;2022-07-29T09:27:20;9.60;;;4.70;;
27839;SDS011;15207;42.182;24.308;2022-07-29T09:29:54;7.65;;;4.60;;
27839;SDS011;15207;42.182;24.308;2022-07-29T09:32:24;8.40;;;5.20;;
27839;SDS011;15207;42.182;24.308;2022-07-29T09:34:52;7.20;;;4.75;;
27839;SDS011;15207;42.182;24.308;2022-07-29T09:37:55;6.73;;;4.70;;
27839;SDS011;15207;42.182;24.308;2022-07-29T09:40:27;8.70;;;4.45;;
27839;SDS011;15207;42.182;24.308;2022-07-29T09:42:53;7.20;;;4.50;;
27839;SDS011;15207;42.182;24.308;2022-07-29T09:45:32;7.60;;;4.60;;
27839;SDS011;15207;42.182;24.308;2022-07-29T09:47:59;8.20;;;5.20;;
27839;SDS011;15207;42.182;24.308;2022-07-29T09:50:40;9.70;;;5.00;;
27839;SDS011;15207;42.182;24.308;2022-07-29T09:53:07;9.05;;;4.75;;
27839;SDS011;15207;42.182;24.308;2022-07-29T09:58:15;8.90;;;4.13;;
27839;SDS011;15207;42.182;24.308;2022-07-29T10:00:43;4.10;;;3.53;;
27839;SDS011;15207;42.182;24.308;2022-07-29T10:03:10;4.45;;;3.55;;
27839;SDS011;15207;42.182;24.308;2022-07-29T10:08:03;5.30;;;4.10;;
27839;SDS011;15207;42.182;24.308;2022-07-29T10:10:33;4.85;;;3.80;;
27839;SDS011;15207;42.182;24.308;2022-07-29T10:13:10;7.60;;;4.10;;
27839;SDS011;15207;42.182;24.308;2022-07-29T10:15:38;7.10;;;3.90;;
27839;SDS011;15207;42.182;24.308;2022-07-29T10:18:06;8.47;;;4.10;;
27839;SDS011;15207;42.182;24.308;2022-07-29T10:20:33;8.90;;;3.90;;
27839;SDS011;15207;42.182;24.308;2022-07-29T10:22:59;7.40;;;3.35;;
27839;SDS011;15207;42.182;24.308;2022-07-29T10:25:25;4.90;;;3.70;;
27839;SDS011;15207;42.182;24.308;2022-07-29T10:27:51;5.40;;;3.40;;
27839;SDS011;15207;42.182;24.308;2022-07-29T10:30:20;6.70;;;3.05;;
27839;SDS011;15207;42.182;24.308;2022-07-29T10:38:37;5.93;;;3.00;;
27839;SDS011;15207;42.182;24.308;2022-07-29T10:43:55;7.45;;;3.40;;
27839;SDS011;15207;42.182;24.308;2022-07-29T10:46:24;7.20;;;3.10;;
27839;SDS011;15207;42.182;24.308;2022-07-29T11:07:31;7.50;;;3.40;;
27839;SDS011;15207;42.182;24.308;2022-07-29T11:15:05;6.20;;;2.80;;
27839;SDS011;15207;42.182;24.308;2022-07-29T11:23:19;6.95;;;3.05;;
27839;SDS011;15207;42.182;24.308;2022-07-29T11:31:46;6.43;;;2.90;;
27839;SDS011;15207;42.182;24.308;2022-07-29T11:34:26;3.40;;;2.50;;
27839;SDS011;15207;42.182;24.308;2022-07-29T11:39:38;3.83;;;2.77;;
27839;SDS011;15207;42.182;24.308;2022-07-29T11:47:37;9.65;;;3.10;;
27839;SDS011;15207;42.182;24.308;2022-07-29T11:50:28;3.90;;;2.80;;
27839;SDS011;15207;42.182;24.308;2022-07-29T11:52:57;4.75;;;2.20;;
27839;SDS011;15207;42.182;24.308;2022-07-29T11:55:23;6.90;;;2.33;;
27839;SDS011;15207;42.182;24.308;2022-07-29T11:57:51;3.80;;;2.30;;
27839;SDS011;15207;42.182;24.308;2022-07-29T12:02:47;4.40;;;2.30;;
27839;SDS011;15207;42.182;24.308;2022-07-29T12:05:13;4.20;;;2.75;;
27839;SDS011;15207;42.182;24.308;2022-07-29T12:07:38;6.40;;;3.20;;
27839;SDS011;15207;42.182;24.308;2022-07-29T12:10:05;5.70;;;2.60;;
27839;SDS011;15207;42.182;24.308;2022-07-29T12:12:33;4.43;;;2.58;;
27839;SDS011;15207;42.182;24.308;2022-07-29T12:17:37;3.35;;;2.10;;
27839;SDS011;15207;42.182;24.308;2022-07-29T12:20:04;5.90;;;2.50;;
27839;SDS011;15207;42.182;24.308;2022-07-29T12:22:31;3.47;;;2.70;;
27839;SDS011;15207;42.182;24.308;2022-07-29T12:25:09;4.50;;;2.30;;
27839;SDS011;15207;42.182;24.308;2022-07-29T12:27:36;6.50;;;2.20;;
27839;SDS011;15207;42.182;24.308;2022-07-29T12:30:07;4.75;;;2.50;;
27839;SDS011;15207;42.182;24.308;2022-07-29T12:32:35;4.40;;;2.25;;
27839;SDS011;15207;42.182;24.308;2022-07-29T12:35:06;3.87;;;2.20;;
27839;SDS011;15207;42.182;24.308;2022-07-29T12:37:37;4.60;;;2.70;;
27839;SDS011;15207;42.182;24.308;2022-07-29T12:40:05;4.75;;;2.05;;
27839;SDS011;15207;42.182;24.308;2022-07-29T12:42:32;4.95;;;2.45;;
27839;SDS011;15207;42.182;24.308;2022-07-29T12:44:58;3.25;;;2.25;;
27839;SDS011;15207;42.182;24.308;2022-07-29T12:47:24;6.55;;;2.70;;
27839;SDS011;15207;42.182;24.308;2022-07-29T12:49:50;6.55;;;2.40;;
27839;SDS011;15207;42.182;24.308;2022-07-29T12:52:26;4.40;;;2.40;;
27839;SDS011;15207;42.182;24.308;2022-07-29T12:54:56;2.15;;;2.00;;
27839;SDS011;15207;42.182;24.308;2022-07-29T12:57:22;8.10;;;2.40;;
27839;SDS011;15207;42.182;24.308;2022-07-29T13:00:05;5.10;;;2.17;;
27839;SDS011;15207;42.182;24.308;2022-07-29T13:05:01;5.15;;;2.25;;
27839;SDS011;15207;42.182;24.308;2022-07-29T13:07:28;8.85;;;2.20;;
27839;SDS011;15207;42.182;24.308;2022-07-29T13:10:09;2.95;;;2.10;;
27839;SDS011;15207;42.182;24.308;2022-07-29T13:13:10;3.15;;;2.05;;
27839;SDS011;15207;42.182;24.308;2022-07-29T13:15:37;2.67;;;2.23;;
27839;SDS011;15207;42.182;24.308;2022-07-29T13:18:05;3.45;;;2.50;;
27839;SDS011;15207;42.182;24.308;2022-07-29T13:23:19;3.45;;;2.30;;
27839;SDS011;15207;42.182;24.308;2022-07-29T13:25:44;3.00;;;2.20;;
27839;SDS011;15207;42.182;24.308;2022-07-29T13:28:10;2.85;;;2.30;;
27839;SDS011;15207;42.182;24.308;2022-07-29T13:30:36;5.15;;;2.38;;
27839;SDS011;15207;42.182;24.308;2022-07-29T13:33:04;5.25;;;2.40;;
27839;SDS011;15207;42.182;24.308;2022-07-29T13:35:29;5.90;;;2.30;;
27839;SDS011;15207;42.182;24.308;2022-07-29T13:37:55;4.60;;;2.30;;
27839;SDS011;15207;42.182;24.308;2022-07-29T13:40:21;10.95;;;3.50;;
27839;SDS011;15207;42.182;24.308;2022-07-29T13:42:46;5.90;;;2.95;;
27839;SDS011;15207;42.182;24.308;2022-07-29T13:45:12;5.20;;;2.80;;
27839;SDS011;15207;42.182;24.308;2022-07-29T13:47:38;4.10;;;2.60;;
27839;SDS011;15207;42.182;24.308;2022-07-29T13:50:04;6.05;;;2.90;;
27839;SDS011;15207;42.182;24.308;2022-07-29T13:52:31;6.70;;;3.40;;
27839;SDS011;15207;42.182;24.308;2022-07-29T13:54:57;3.70;;;2.80;;
27839;SDS011;15207;42.182;24.308;2022-07-29T13:57:22;6.00;;;2.60;;
27839;SDS011;15207;42.182;24.308;2022-07-29T13:59:48;26.00;;;8.20;;
27839;SDS011;15207;42.182;24.308;2022-07-29T14:02:16;12.07;;;4.60;;
27839;SDS011;15207;42.182;24.308;2022-07-29T14:04:41;7.00;;;2.80;;
27839;SDS011;15207;42.182;24.308;2022-07-29T14:07:07;5.90;;;3.00;;
27839;SDS011;15207;42.182;24.308;2022-07-29T14:09:33;5.20;;;2.85;;
27839;SDS011;15207;42.182;24.308;2022-07-29T14:11:58;5.90;;;2.85;;
27839;SDS011;15207;42.182;24.308;2022-07-29T14:14:24;5.75;;;2.90;;
27839;SDS011;15207;42.182;24.308;2022-07-29T14:16:50;7.75;;;3.00;;
27839;SDS011;15207;42.182;24.308;2022-07-29T14:19:15;8.45;;;2.75;;
27839;SDS011;15207;42.182;24.308;2022-07-29T14:21:41;6.55;;;2.80;;
27839;SDS011;15207;42.182;24.308;2022-07-29T14:24:07;5.60;;;2.60;;
27839;SDS011;15207;42.182;24.308;2022-07-29T14:26:32;5.15;;;2.60;;
27839;SDS011;15207;42.182;24.308;2022-07-29T14:28:58;3.00;;;2.40;;
27839;SDS011;15207;42.182;24.308;2022-07-29T14:31:24;6.70;;;2.90;;
27839;SDS011;15207;42.182;24.308;2022-07-29T14:33:49;4.45;;;2.70;;
27839;SDS011;15207;42.182;24.308;2022-07-29T14:36:15;6.80;;;3.00;;
27839;SDS011;15207;42.182;24.308;2022-07-29T14:38:41;4.60;;;2.70;;
27839;SDS011;15207;42.182;24.308;2022-07-29T14:41:07;5.30;;;2.50;;
27839;SDS011;15207;42.182;24.308;2022-07-29T14:43:33;4.60;;;2.90;;
27839;SDS011;15207;42.182;24.308;2022-07-29T14:46:02;5.10;;;2.80;;
27839;SDS011;15207;42.182;24.308;2022-07-29T14:48:28;7.10;;;2.70;;
27839;SDS011;15207;42.182;24.308;2022-07-29T14:50:53;6.53;;;2.45;;
27839;SDS011;15207;42.182;24.308;2022-07-29T14:53:21;3.70;;;2.65;;
27839;SDS011;15207;42.182;24.308;2022-07-29T14:55:47;11.10;;;2.90;;
27839;SDS011;15207;42.182;24.308;2022-07-29T14:58:13;4.17;;;2.60;;
27839;SDS011;15207;42.182;24.308;2022-07-29T15:00:39;10.00;;;2.60;;
27839;SDS011;15207;42.182;24.308;2022-07-29T15:03:04;5.30;;;3.00;;
27839;SDS011;15207;42.182;24.308;2022-07-29T15:05:30;4.80;;;2.95;;
27839;SDS011;15207;42.182;24.308;2022-07-29T15:07:56;32.70;;;3.95;;
27839;SDS011;15207;42.182;24.308;2022-07-29T15:10:23;3.00;;;2.50;;
27839;SDS011;15207;42.182;24.308;2022-07-29T15:12:51;8.35;;;2.50;;
27839;SDS011;15207;42.182;24.308;2022-07-29T15:15:16;6.70;;;3.00;;
27839;SDS011;15207;42.182;24.308;2022-07-29T15:17:42;5.20;;;2.80;;
27839;SDS011;15207;42.182;24.308;2022-07-29T15:20:08;6.40;;;3.10;;
27839;SDS011;15207;42.182;24.308;2022-07-29T15:22:34;3.70;;;3.00;;
27839;SDS011;15207;42.182;24.308;2022-07-29T15:24:59;3.70;;;2.80;;
27839;SDS011;15207;42.182;24.308;2022-07-29T15:27:25;9.25;;;3.00;;
27839;SDS011;15207;42.182;24.308;2022-07-29T15:29:51;3.80;;;2.95;;
27839;SDS011;15207;42.182;24.308;2022-07-29T15:32:16;7.90;;;3.30;;
27839;SDS011;15207;42.182;24.308;2022-07-29T15:34:42;5.70;;;2.85;;
27839;SDS011;15207;42.182;24.308;2022-07-29T15:37:07;6.75;;;2.75;;
27839;SDS011;15207;42.182;24.308;2022-07-29T15:39:33;5.90;;;3.00;;
27839;SDS011;15207;42.182;24.308;2022-07-29T15:41:58;7.57;;;3.23;;
27839;SDS011;15207;42.182;24.308;2022-07-29T15:44:25;7.90;;;3.10;;
27839;SDS011;15207;42.182;24.308;2022-07-29T15:46:50;11.55;;;3.50;;
27839;SDS011;15207;42.182;24.308;2022-07-29T15:49:28;10.13;;;3.10;;
27839;SDS011;15207;42.182;24.308;2022-07-29T15:51:57;9.55;;;3.40;;
27839;SDS011;15207;42.182;24.308;2022-07-29T15:56:49;7.70;;;3.00;;
27839;SDS011;15207;42.182;24.308;2022-07-29T15:59:15;5.45;;;2.80;;
27839;SDS011;15207;42.182;24.308;2022-07-29T16:01:40;5.60;;;2.90;;
27839;SDS011;15207;42.182;24.308;2022-07-29T16:04:06;4.10;;;2.90;;
27839;SDS011;15207;42.182;24.308;2022-07-29T16:06:32;8.90;;;2.80;;
27839;SDS011;15207;42.182;24.308;2022-07-29T16:08:57;7.30;;;2.70;;
27839;SDS011;15207;42.182;24.308;2022-07-29T16:11:24;4.43;;;2.83;;
27839;SDS011;15207;42.182;24.308;2022-07-29T16:13:50;5.53;;;2.50;;
27839;SDS011;15207;42.182;24.308;2022-07-29T16:16:16;9.40;;;2.45;;
27839;SDS011;15207;42.182;24.308;2022-07-29T16:18:43;8.80;;;2.40;;
27839;SDS011;15207;42.182;24.308;2022-07-29T16:21:09;4.10;;;2.50;;
27839;SDS011;15207;42.182;24.308;2022-07-29T16:23:35;4.80;;;2.85;;
27839;SDS011;15207;42.182;24.308;2022-07-29T16:26:00;5.45;;;2.30;;
27839;SDS011;15207;42.182;24.308;2022-07-29T16:28:27;12.73;;;2.50;;
27839;SDS011;15207;42.182;24.308;2022-07-29T16:30:54;7.55;;;2.50;;
27839;SDS011;15207;42.182;24.308;2022-07-29T16:33:19;4.90;;;2.30;;
27839;SDS011;15207;42.182;24.308;2022-07-29T16:35:45;7.70;;;2.47;;
27839;SDS011;15207;42.182;24.308;2022-07-29T16:38:11;5.00;;;2.87;;
27839;SDS011;15207;42.182;24.308;2022-07-29T16:40:36;4.60;;;2.50;;
27839;SDS011;15207;42.182;24.308;2022-07-29T16:43:02;8.40;;;2.40;;
27839;SDS011;15207;42.182;24.308;2022-07-29T16:45:28;6.20;;;2.75;;